This is the latest recevied weather packets stored in our database for station/object K8CWG. If no packets are shown the sender has not sent any weather packets the latest 10 day(s).
| Time | Temp. | Humidity | Pressure | Rain* | Wind** | Luminosity | Snow |
|---|---|---|---|---|---|---|---|
| 1777186802 | 10° C | 87% | 1012.9 hPa | 0 mm | - | - | - |
| 1777183202 | 10.56° C | 89% | 1012.9 hPa | 0 mm | - | - | - |
| 1777179602 | 12.22° C | 88% | 1012.5 hPa | 0 mm | - | - | - |
| 1777178704 | 12.78° C | 89% | 1012.5 hPa | 0 mm | - | - | - |
| 1777177802 | 12.78° C | 88% | 1012.4 hPa | 0 mm | - | - | - |
| 1777176901 | 13.33° C | 88% | 1012.2 hPa | 0 mm | - | - | - |
| 1777176005 | 13.89° C | 88% | 1012.1 hPa | 0 mm | - | - | - |
| 1777172408 | 15° C | 87% | 1011.4 hPa | 0 mm | - | - | - |
| 1777168807 | 16.67° C | 77% | 1010.4 hPa | 0 mm | - | - | - |
| 1777165202 | 17.78° C | 71% | 1009.7 hPa | 0 mm | - | - | - |
| 1777161602 | 20.56° C | 62% | 1008.8 hPa | 0 mm | - | - | - |
| 1777158003 | 22.22° C | 58% | 1008.4 hPa | 0 mm | - | - | - |
| 1777154404 | 23.89° C | 55% | 1008.1 hPa | 0 mm | - | - | - |
| 1777150804 | 25.56° C | 54% | 1008 hPa | 0 mm | - | - | - |
| 1777147211 | 25° C | 53% | 1008.3 hPa | 0 mm | - | - | - |
| 1777143604 | 24.44° C | 57% | 1008.5 hPa | 0 mm | - | - | - |
| 1777140003 | 23.89° C | 62% | 1008.9 hPa | 0 mm | - | - | - |
| 1777138202 | 23.33° C | 63% | 1009.1 hPa | 0 mm | - | - | - |
| 1777137301 | 22.22° C | 67% | 1009.3 hPa | 0 mm | - | - | - |
| 1777136408 | 21.11° C | 75% | 1009.3 hPa | 0 mm | - | - | - |
| 1777135501 | 20.56° C | 73% | 1009.6 hPa | 0 mm | - | - | - |
| 1777134602 | 19.44° C | 77% | 1009.6 hPa | 0 mm | - | - | - |
| 1777132811 | 18.89° C | 80% | 1009.8 hPa | 0 mm | - | - | - |
| 1777129202 | 16.67° C | 87% | 1009.7 hPa | 0 mm | - | - | - |
| 1777125606 | 16.11° C | 92% | 1009.3 hPa | 0 mm | - | - | - |
* Rain latest hour (hover to see other rain measurements)
** Current wind speed in m/s (hover to see current wind gust speed)